sensor_id;sensor_type;location;lat;lon;timestamp;P1;durP1;ratioP1;P2;durP2;ratioP2
18653;SDS011;9456;47.824;16.228;2022-09-09T00:47:54;1.67;;;0.90;;
18653;SDS011;9456;47.824;16.228;2022-09-09T03:42:35;2.00;;;1.60;;
18653;SDS011;9456;47.824;16.228;2022-09-09T03:46:01;1.37;;;1.27;;
18653;SDS011;9456;47.824;16.228;2022-09-09T05:36:38;1.77;;;1.67;;
18653;SDS011;9456;47.824;16.228;2022-09-09T05:39:06;5.90;;;1.70;;
18653;SDS011;9456;47.824;16.228;2022-09-09T05:41:33;7.13;;;1.90;;
18653;SDS011;9456;47.824;16.228;2022-09-09T05:44:01;7.90;;;1.87;;
18653;SDS011;9456;47.824;16.228;2022-09-09T05:46:29;12.60;;;2.13;;
18653;SDS011;9456;47.824;16.228;2022-09-09T05:48:57;8.73;;;1.77;;
18653;SDS011;9456;47.824;16.228;2022-09-09T05:51:26;4.70;;;1.53;;
18653;SDS011;9456;47.824;16.228;2022-09-09T05:53:56;13.70;;;2.20;;
18653;SDS011;9456;47.824;16.228;2022-09-09T05:56:25;6.47;;;1.70;;
18653;SDS011;9456;47.824;16.228;2022-09-09T05:58:53;10.07;;;2.03;;
18653;SDS011;9456;47.824;16.228;2022-09-09T06:01:21;10.07;;;1.90;;
18653;SDS011;9456;47.824;16.228;2022-09-09T06:03:49;5.67;;;1.50;;
18653;SDS011;9456;47.824;16.228;2022-09-09T06:06:18;4.87;;;1.67;;
18653;SDS011;9456;47.824;16.228;2022-09-09T06:08:47;2.73;;;1.57;;
18653;SDS011;9456;47.824;16.228;2022-09-09T06:11:18;2.40;;;1.43;;
18653;SDS011;9456;47.824;16.228;2022-09-09T06:13:46;4.50;;;1.37;;
18653;SDS011;9456;47.824;16.228;2022-09-09T06:16:16;2.87;;;1.30;;
18653;SDS011;9456;47.824;16.228;2022-09-09T06:18:44;2.63;;;1.23;;
18653;SDS011;9456;47.824;16.228;2022-09-09T06:21:15;5.60;;;1.50;;
18653;SDS011;9456;47.824;16.228;2022-09-09T06:23:42;4.87;;;1.80;;
18653;SDS011;9456;47.824;16.228;2022-09-09T06:26:11;9.20;;;1.80;;
18653;SDS011;9456;47.824;16.228;2022-09-09T06:28:40;7.87;;;1.57;;
18653;SDS011;9456;47.824;16.228;2022-09-09T06:31:09;11.73;;;2.13;;
18653;SDS011;9456;47.824;16.228;2022-09-09T06:33:37;7.93;;;1.80;;
18653;SDS011;9456;47.824;16.228;2022-09-09T06:36:06;10.33;;;2.20;;
18653;SDS011;9456;47.824;16.228;2022-09-09T06:38:34;9.77;;;1.90;;
18653;SDS011;9456;47.824;16.228;2022-09-09T06:41:02;6.63;;;2.27;;
18653;SDS011;9456;47.824;16.228;2022-09-09T06:43:30;9.60;;;2.10;;
18653;SDS011;9456;47.824;16.228;2022-09-09T06:46:00;14.93;;;2.20;;
18653;SDS011;9456;47.824;16.228;2022-09-09T06:48:28;10.57;;;2.30;;
18653;SDS011;9456;47.824;16.228;2022-09-09T06:51:03;10.57;;;2.07;;
18653;SDS011;9456;47.824;16.228;2022-09-09T06:53:31;5.47;;;1.70;;
18653;SDS011;9456;47.824;16.228;2022-09-09T06:55:59;5.47;;;2.23;;
18653;SDS011;9456;47.824;16.228;2022-09-09T06:58:27;7.73;;;1.60;;
18653;SDS011;9456;47.824;16.228;2022-09-09T07:01:02;5.90;;;1.97;;
18653;SDS011;9456;47.824;16.228;2022-09-09T07:03:30;6.33;;;1.90;;
18653;SDS011;9456;47.824;16.228;2022-09-09T07:05:58;7.73;;;2.13;;
18653;SDS011;9456;47.824;16.228;2022-09-09T07:08:25;8.47;;;2.10;;
18653;SDS011;9456;47.824;16.228;2022-09-09T07:10:53;8.37;;;1.80;;
18653;SDS011;9456;47.824;16.228;2022-09-09T07:13:23;12.20;;;1.90;;
18653;SDS011;9456;47.824;16.228;2022-09-09T07:15:51;10.93;;;1.80;;
18653;SDS011;9456;47.824;16.228;2022-09-09T07:18:19;13.47;;;2.23;;
18653;SDS011;9456;47.824;16.228;2022-09-09T07:20:52;5.80;;;1.47;;
18653;SDS011;9456;47.824;16.228;2022-09-09T07:23:22;6.37;;;1.37;;
18653;SDS011;9456;47.824;16.228;2022-09-09T07:25:49;4.37;;;1.80;;
18653;SDS011;9456;47.824;16.228;2022-09-09T07:28:18;3.43;;;1.63;;
18653;SDS011;9456;47.824;16.228;2022-09-09T07:30:52;6.65;;;1.95;;
18653;SDS011;9456;47.824;16.228;2022-09-09T07:33:21;3.28;;;1.50;;
18653;SDS011;9456;47.824;16.228;2022-09-09T07:35:49;4.75;;;1.70;;
18653;SDS011;9456;47.824;16.228;2022-09-09T07:38:16;4.15;;;1.23;;
18653;SDS011;9456;47.824;16.228;2022-09-09T07:40:44;3.75;;;1.60;;
18653;SDS011;9456;47.824;16.228;2022-09-09T07:43:12;2.22;;;1.55;;
18653;SDS011;9456;47.824;16.228;2022-09-09T07:45:42;3.63;;;1.60;;
18653;SDS011;9456;47.824;16.228;2022-09-09T07:48:09;4.22;;;1.02;;
18653;SDS011;9456;47.824;16.228;2022-09-09T07:50:41;1.25;;;1.15;;
18653;SDS011;9456;47.824;16.228;2022-09-09T07:53:08;2.17;;;1.45;;
18653;SDS011;9456;47.824;16.228;2022-09-09T07:55:36;1.73;;;1.40;;
18653;SDS011;9456;47.824;16.228;2022-09-09T07:58:03;2.25;;;1.40;;
18653;SDS011;9456;47.824;16.228;2022-09-09T08:00:31;1.42;;;1.33;;
18653;SDS011;9456;47.824;16.228;2022-09-09T08:02:58;3.30;;;1.30;;
18653;SDS011;9456;47.824;16.228;2022-09-09T08:05:27;1.13;;;1.10;;
18653;SDS011;9456;47.824;16.228;2022-09-09T08:07:56;1.63;;;0.98;;
18653;SDS011;9456;47.824;16.228;2022-09-09T08:10:23;2.92;;;1.33;;
18653;SDS011;9456;47.824;16.228;2022-09-09T08:12:50;2.25;;;1.17;;
18653;SDS011;9456;47.824;16.228;2022-09-09T08:15:18;5.80;;;1.60;;
18653;SDS011;9456;47.824;16.228;2022-09-09T08:17:46;4.13;;;1.52;;
18653;SDS011;9456;47.824;16.228;2022-09-09T08:20:13;5.57;;;1.58;;
18653;SDS011;9456;47.824;16.228;2022-09-09T08:22:41;6.70;;;1.52;;
18653;SDS011;9456;47.824;16.228;2022-09-09T08:25:10;3.25;;;1.33;;
18653;SDS011;9456;47.824;16.228;2022-09-09T08:27:37;1.15;;;0.77;;
18653;SDS011;9456;47.824;16.228;2022-09-09T08:30:05;2.70;;;1.33;;
18653;SDS011;9456;47.824;16.228;2022-09-09T08:32:33;3.45;;;0.90;;
18653;SDS011;9456;47.824;16.228;2022-09-09T08:35:00;2.17;;;0.70;;
18653;SDS011;9456;47.824;16.228;2022-09-09T08:37:28;0.75;;;0.70;;
18653;SDS011;9456;47.824;16.228;2022-09-09T08:39:55;3.58;;;1.00;;
18653;SDS011;9456;47.824;16.228;2022-09-09T08:45:11;0.98;;;0.85;;
18653;SDS011;9456;47.824;16.228;2022-09-09T08:47:44;2.00;;;0.80;;
18653;SDS011;9456;47.824;16.228;2022-09-09T08:50:17;2.25;;;0.70;;
18653;SDS011;9456;47.824;16.228;2022-09-09T08:52:49;1.73;;;1.17;;
18653;SDS011;9456;47.824;16.228;2022-09-09T08:55:21;2.25;;;0.73;;
18653;SDS011;9456;47.824;16.228;2022-09-09T08:57:49;1.90;;;1.30;;
18653;SDS011;9456;47.824;16.228;2022-09-09T09:00:20;2.92;;;1.40;;
18653;SDS011;9456;47.824;16.228;2022-09-09T09:02:53;1.70;;;1.30;;
18653;SDS011;9456;47.824;16.228;2022-09-09T09:05:23;1.40;;;1.15;;
18653;SDS011;9456;47.824;16.228;2022-09-09T09:07:57;1.42;;;1.20;;
18653;SDS011;9456;47.824;16.228;2022-09-09T09:10:31;2.40;;;0.90;;
18653;SDS011;9456;47.824;16.228;2022-09-09T09:13:01;2.50;;;0.90;;
18653;SDS011;9456;47.824;16.228;2022-09-09T09:15:32;1.60;;;1.25;;
18653;SDS011;9456;47.824;16.228;2022-09-09T09:18:03;1.98;;;0.90;;
18653;SDS011;9456;47.824;16.228;2022-09-09T09:20:33;1.20;;;0.93;;
18653;SDS011;9456;47.824;16.228;2022-09-09T09:23:02;2.20;;;0.98;;
18653;SDS011;9456;47.824;16.228;2022-09-09T09:25:31;1.25;;;0.88;;
18653;SDS011;9456;47.824;16.228;2022-09-09T09:27:59;0.63;;;0.60;;
18653;SDS011;9456;47.824;16.228;2022-09-09T09:30:34;1.27;;;1.17;;
18653;SDS011;9456;47.824;16.228;2022-09-09T09:33:03;0.90;;;0.75;;
18653;SDS011;9456;47.824;16.228;2022-09-09T09:35:32;1.60;;;0.80;;
18653;SDS011;9456;47.824;16.228;2022-09-09T09:37:59;0.60;;;0.60;;
18653;SDS011;9456;47.824;16.228;2022-09-09T09:40:28;0.80;;;0.80;;
18653;SDS011;9456;47.824;16.228;2022-09-09T09:42:56;1.38;;;0.90;;
18653;SDS011;9456;47.824;16.228;2022-09-09T09:45:28;8.15;;;5.30;;
18653;SDS011;9456;47.824;16.228;2022-09-09T09:48:02;2.78;;;1.95;;
18653;SDS011;9456;47.824;16.228;2022-09-09T09:50:30;2.80;;;2.00;;
18653;SDS011;9456;47.824;16.228;2022-09-09T09:52:59;0.80;;;0.80;;
18653;SDS011;9456;47.824;16.228;2022-09-09T09:55:27;1.02;;;0.80;;
18653;SDS011;9456;47.824;16.228;2022-09-09T09:58:00;0.65;;;0.60;;
18653;SDS011;9456;47.824;16.228;2022-09-09T10:00:28;1.20;;;0.90;;
18653;SDS011;9456;47.824;16.228;2022-09-09T10:02:55;0.77;;;0.70;;
18653;SDS011;9456;47.824;16.228;2022-09-09T10:05:26;0.70;;;0.70;;
18653;SDS011;9456;47.824;16.228;2022-09-09T10:08:00;2.38;;;1.65;;
18653;SDS011;9456;47.824;16.228;2022-09-09T10:10:31;2.13;;;1.25;;
18653;SDS011;9456;47.824;16.228;2022-09-09T10:13:05;1.52;;;1.40;;
18653;SDS011;9456;47.824;16.228;2022-09-09T10:15:37;0.70;;;0.70;;
18653;SDS011;9456;47.824;16.228;2022-09-09T10:18:10;0.80;;;0.80;;
18653;SDS011;9456;47.824;16.228;2022-09-09T10:20:43;0.73;;;0.73;;
18653;SDS011;9456;47.824;16.228;2022-09-09T10:23:17;0.80;;;0.80;;
18653;SDS011;9456;47.824;16.228;2022-09-09T10:25:55;0.80;;;0.80;;
18653;SDS011;9456;47.824;16.228;2022-09-09T10:28:35;1.65;;;0.98;;
18653;SDS011;9456;47.824;16.228;2022-09-09T10:31:11;1.05;;;0.75;;
18653;SDS011;9456;47.824;16.228;2022-09-09T10:33:44;2.67;;;0.90;;
18653;SDS011;9456;47.824;16.228;2022-09-09T10:36:18;1.70;;;1.15;;
18653;SDS011;9456;47.824;16.228;2022-09-09T10:38:46;1.23;;;0.90;;
18653;SDS011;9456;47.824;16.228;2022-09-09T10:41:18;4.10;;;0.80;;
18653;SDS011;9456;47.824;16.228;2022-09-09T10:43:59;0.90;;;0.70;;
18653;SDS011;9456;47.824;16.228;2022-09-09T10:46:36;0.67;;;0.67;;
18653;SDS011;9456;47.824;16.228;2022-09-09T10:49:10;1.20;;;0.87;;
18653;SDS011;9456;47.824;16.228;2022-09-09T10:51:45;2.00;;;0.80;;
18653;SDS011;9456;47.824;16.228;2022-09-09T10:54:30;0.97;;;0.87;;
18653;SDS011;9456;47.824;16.228;2022-09-09T10:57:00;1.50;;;0.53;;
18653;SDS011;9456;47.824;16.228;2022-09-09T10:59:28;2.33;;;1.30;;
18653;SDS011;9456;47.824;16.228;2022-09-09T11:01:58;0.80;;;0.80;;
18653;SDS011;9456;47.824;16.228;2022-09-09T11:04:28;1.47;;;0.80;;
18653;SDS011;9456;47.824;16.228;2022-09-09T11:07:01;1.60;;;0.80;;
18653;SDS011;9456;47.824;16.228;2022-09-09T11:09:31;0.90;;;0.60;;
18653;SDS011;9456;47.824;16.228;2022-09-09T11:12:00;0.70;;;0.70;;
18653;SDS011;9456;47.824;16.228;2022-09-09T11:14:29;0.63;;;0.63;;
18653;SDS011;9456;47.824;16.228;2022-09-09T11:17:01;1.37;;;1.03;;
18653;SDS011;9456;47.824;16.228;2022-09-09T11:19:30;3.33;;;0.70;;
18653;SDS011;9456;47.824;16.228;2022-09-09T11:22:00;1.40;;;0.60;;
18653;SDS011;9456;47.824;16.228;2022-09-09T11:24:29;1.10;;;0.97;;
18653;SDS011;9456;47.824;16.228;2022-09-09T11:27:00;2.57;;;0.93;;
18653;SDS011;9456;47.824;16.228;2022-09-09T11:29:44;0.60;;;0.60;;
18653;SDS011;9456;47.824;16.228;2022-09-09T11:32:20;0.63;;;0.60;;
18653;SDS011;9456;47.824;16.228;2022-09-09T11:34:51;0.80;;;0.80;;
18653;SDS011;9456;47.824;16.228;2022-09-09T11:40:19;0.80;;;0.80;;
18653;SDS011;9456;47.824;16.228;2022-09-09T11:42:47;2.27;;;0.70;;
18653;SDS011;9456;47.824;16.228;2022-09-09T11:45:19;0.63;;;0.63;;
18653;SDS011;9456;47.824;16.228;2022-09-09T11:47:52;1.80;;;0.77;;
18653;SDS011;9456;47.824;16.228;2022-09-09T11:50:30;0.57;;;0.57;;
18653;SDS011;9456;47.824;16.228;2022-09-09T11:55:59;0.80;;;0.60;;
18653;SDS011;9456;47.824;16.228;2022-09-09T11:58:27;0.77;;;0.70;;
18653;SDS011;9456;47.824;16.228;2022-09-09T12:00:57;0.70;;;0.70;;
18653;SDS011;9456;47.824;16.228;2022-09-09T12:03:35;2.27;;;0.70;;
18653;SDS011;9456;47.824;16.228;2022-09-09T12:06:09;1.07;;;0.60;;
18653;SDS011;9456;47.824;16.228;2022-09-09T12:08:39;1.13;;;0.87;;
18653;SDS011;9456;47.824;16.228;2022-09-09T12:11:10;1.00;;;0.70;;
18653;SDS011;9456;47.824;16.228;2022-09-09T12:13:37;0.80;;;0.77;;
18653;SDS011;9456;47.824;16.228;2022-09-09T12:16:26;2.00;;;1.90;;
18653;SDS011;9456;47.824;16.228;2022-09-09T12:19:13;2.47;;;1.23;;
18653;SDS011;9456;47.824;16.228;2022-09-09T12:21:44;0.70;;;0.70;;
18653;SDS011;9456;47.824;16.228;2022-09-09T12:24:14;0.83;;;0.80;;
18653;SDS011;9456;47.824;16.228;2022-09-09T12:26:48;0.63;;;0.63;;
18653;SDS011;9456;47.824;16.228;2022-09-09T12:29:22;5.93;;;4.60;;
18653;SDS011;9456;47.824;16.228;2022-09-09T12:31:54;3.00;;;1.50;;
18653;SDS011;9456;47.824;16.228;2022-09-09T12:34:28;3.07;;;0.80;;
18653;SDS011;9456;47.824;16.228;2022-09-09T12:36:58;2.20;;;0.97;;
18653;SDS011;9456;47.824;16.228;2022-09-09T12:39:31;2.00;;;0.90;;
18653;SDS011;9456;47.824;16.228;2022-09-09T12:42:02;0.77;;;0.73;;
18653;SDS011;9456;47.824;16.228;2022-09-09T12:44:29;0.60;;;0.60;;
18653;SDS011;9456;47.824;16.228;2022-09-09T12:46:58;0.63;;;0.63;;
18653;SDS011;9456;47.824;16.228;2022-09-09T12:49:29;2.10;;;1.13;;
18653;SDS011;9456;47.824;16.228;2022-09-09T12:52:00;1.30;;;1.00;;
18653;SDS011;9456;47.824;16.228;2022-09-09T12:54:29;3.27;;;1.27;;
18653;SDS011;9456;47.824;16.228;2022-09-09T12:56:57;2.00;;;0.80;;
18653;SDS011;9456;47.824;16.228;2022-09-09T12:59:27;0.60;;;0.60;;
18653;SDS011;9456;47.824;16.228;2022-09-09T13:02:01;0.97;;;0.70;;
18653;SDS011;9456;47.824;16.228;2022-09-09T13:04:29;1.07;;;0.80;;
18653;SDS011;9456;47.824;16.228;2022-09-09T13:07:05;0.93;;;0.90;;
18653;SDS011;9456;47.824;16.228;2022-09-09T13:09:35;1.60;;;0.80;;
18653;SDS011;9456;47.824;16.228;2022-09-09T13:12:02;0.80;;;0.70;;
18653;SDS011;9456;47.824;16.228;2022-09-09T13:14:34;0.73;;;0.73;;
18653;SDS011;9456;47.824;16.228;2022-09-09T13:17:04;0.83;;;0.70;;
18653;SDS011;9456;47.824;16.228;2022-09-09T13:19:34;2.30;;;0.70;;
18653;SDS011;9456;47.824;16.228;2022-09-09T13:22:11;2.07;;;0.83;;
18653;SDS011;9456;47.824;16.228;2022-09-09T13:24:38;2.23;;;1.07;;
18653;SDS011;9456;47.824;16.228;2022-09-09T13:27:26;1.53;;;1.10;;
18653;SDS011;9456;47.824;16.228;2022-09-09T13:29:56;5.60;;;0.97;;
18653;SDS011;9456;47.824;16.228;2022-09-09T13:32:25;2.63;;;0.90;;
18653;SDS011;9456;47.824;16.228;2022-09-09T13:34:53;0.93;;;0.90;;
18653;SDS011;9456;47.824;16.228;2022-09-09T13:37:22;1.03;;;0.90;;
18653;SDS011;9456;47.824;16.228;2022-09-09T13:39:53;1.53;;;0.90;;
18653;SDS011;9456;47.824;16.228;2022-09-09T13:42:24;1.93;;;0.90;;
18653;SDS011;9456;47.824;16.228;2022-09-09T13:44:52;1.20;;;0.90;;
18653;SDS011;9456;47.824;16.228;2022-09-09T13:47:26;0.80;;;0.80;;
18653;SDS011;9456;47.824;16.228;2022-09-09T13:49:54;0.70;;;0.70;;
18653;SDS011;9456;47.824;16.228;2022-09-09T13:52:22;1.60;;;1.00;;
18653;SDS011;9456;47.824;16.228;2022-09-09T13:54:51;1.73;;;0.90;;
18653;SDS011;9456;47.824;16.228;2022-09-09T13:57:21;1.70;;;0.83;;
18653;SDS011;9456;47.824;16.228;2022-09-09T13:59:50;0.90;;;0.60;;
18653;SDS011;9456;47.824;16.228;2022-09-09T14:02:18;1.23;;;0.80;;
18653;SDS011;9456;47.824;16.228;2022-09-09T14:04:47;0.90;;;0.90;;
18653;SDS011;9456;47.824;16.228;2022-09-09T14:07:16;0.80;;;0.70;;
18653;SDS011;9456;47.824;16.228;2022-09-09T14:09:44;0.77;;;0.70;;
18653;SDS011;9456;47.824;16.228;2022-09-09T14:12:15;2.60;;;1.10;;
18653;SDS011;9456;47.824;16.228;2022-09-09T14:14:43;2.93;;;1.00;;
18653;SDS011;9456;47.824;16.228;2022-09-09T14:17:10;3.03;;;0.87;;
18653;SDS011;9456;47.824;16.228;2022-09-09T14:19:39;2.03;;;0.80;;
18653;SDS011;9456;47.824;16.228;2022-09-09T14:22:09;2.47;;;0.70;;
18653;SDS011;9456;47.824;16.228;2022-09-09T14:24:37;0.77;;;0.67;;
18653;SDS011;9456;47.824;16.228;2022-09-09T14:27:04;0.80;;;0.80;;
18653;SDS011;9456;47.824;16.228;2022-09-09T14:29:32;1.57;;;0.80;;
18653;SDS011;9456;47.824;16.228;2022-09-09T14:31:59;1.60;;;0.70;;
18653;SDS011;9456;47.824;16.228;2022-09-09T14:34:27;1.10;;;0.70;;
18653;SDS011;9456;47.824;16.228;2022-09-09T14:36:55;0.70;;;0.70;;
18653;SDS011;9456;47.824;16.228;2022-09-09T14:39:24;1.33;;;0.70;;
18653;SDS011;9456;47.824;16.228;2022-09-09T14:41:52;0.97;;;0.73;;
18653;SDS011;9456;47.824;16.228;2022-09-09T14:44:20;1.60;;;0.90;;
18653;SDS011;9456;47.824;16.228;2022-09-09T14:46:48;2.27;;;0.80;;
18653;SDS011;9456;47.824;16.228;2022-09-09T14:49:16;1.33;;;0.73;;
18653;SDS011;9456;47.824;16.228;2022-09-09T14:51:43;0.70;;;0.70;;
18653;SDS011;9456;47.824;16.228;2022-09-09T14:54:11;0.83;;;0.70;;
18653;SDS011;9456;47.824;16.228;2022-09-09T14:56:41;1.80;;;0.93;;
18653;SDS011;9456;47.824;16.228;2022-09-09T14:59:08;0.80;;;0.80;;
18653;SDS011;9456;47.824;16.228;2022-09-09T15:01:36;1.40;;;0.80;;
18653;SDS011;9456;47.824;16.228;2022-09-09T15:04:03;0.83;;;0.77;;
18653;SDS011;9456;47.824;16.228;2022-09-09T15:06:31;0.93;;;0.80;;
18653;SDS011;9456;47.824;16.228;2022-09-09T15:08:59;1.13;;;0.90;;
18653;SDS011;9456;47.824;16.228;2022-09-09T15:11:27;0.70;;;0.70;;
18653;SDS011;9456;47.824;16.228;2022-09-09T15:13:58;0.87;;;0.63;;
18653;SDS011;9456;47.824;16.228;2022-09-09T15:16:26;0.87;;;0.83;;
18653;SDS011;9456;47.824;16.228;2022-09-09T15:18:55;0.50;;;0.50;;
18653;SDS011;9456;47.824;16.228;2022-09-09T15:21:23;0.67;;;0.67;;
18653;SDS011;9456;47.824;16.228;2022-09-09T15:23:51;0.70;;;0.60;;
18653;SDS011;9456;47.824;16.228;2022-09-09T15:26:18;0.60;;;0.60;;
18653;SDS011;9456;47.824;16.228;2022-09-09T15:28:46;0.87;;;0.70;;
18653;SDS011;9456;47.824;16.228;2022-09-09T15:31:16;0.93;;;0.83;;
18653;SDS011;9456;47.824;16.228;2022-09-09T15:33:46;0.60;;;0.40;;
18653;SDS011;9456;47.824;16.228;2022-09-09T15:36:14;0.70;;;0.70;;
18653;SDS011;9456;47.824;16.228;2022-09-09T15:38:42;1.97;;;0.80;;
18653;SDS011;9456;47.824;16.228;2022-09-09T15:41:10;1.27;;;0.60;;
18653;SDS011;9456;47.824;16.228;2022-09-09T15:43:37;1.13;;;0.60;;
18653;SDS011;9456;47.824;16.228;2022-09-09T15:46:09;0.87;;;0.60;;
18653;SDS011;9456;47.824;16.228;2022-09-09T15:48:53;0.93;;;0.80;;
18653;SDS011;9456;47.824;16.228;2022-09-09T15:51:21;2.00;;;0.90;;
18653;SDS011;9456;47.824;16.228;2022-09-09T15:53:53;1.87;;;0.90;;
18653;SDS011;9456;47.824;16.228;2022-09-09T15:56:21;2.23;;;0.67;;
18653;SDS011;9456;47.824;16.228;2022-09-09T15:58:49;1.17;;;0.83;;
18653;SDS011;9456;47.824;16.228;2022-09-09T16:01:17;1.70;;;0.80;;
18653;SDS011;9456;47.824;16.228;2022-09-09T16:03:45;1.13;;;0.70;;
18653;SDS011;9456;47.824;16.228;2022-09-09T16:06:18;0.60;;;0.60;;
18653;SDS011;9456;47.824;16.228;2022-09-09T16:08:46;1.70;;;0.80;;
18653;SDS011;9456;47.824;16.228;2022-09-09T16:11:15;0.50;;;0.50;;
18653;SDS011;9456;47.824;16.228;2022-09-09T16:13:45;0.93;;;0.70;;
18653;SDS011;9456;47.824;16.228;2022-09-09T16:16:13;0.57;;;0.57;;
18653;SDS011;9456;47.824;16.228;2022-09-09T16:18:42;0.83;;;0.80;;
18653;SDS011;9456;47.824;16.228;2022-09-09T16:21:11;1.10;;;1.00;;
18653;SDS011;9456;47.824;16.228;2022-09-09T16:23:41;1.10;;;1.00;;
18653;SDS011;9456;47.824;16.228;2022-09-09T16:26:09;1.13;;;0.60;;
18653;SDS011;9456;47.824;16.228;2022-09-09T16:28:37;1.20;;;0.87;;
18653;SDS011;9456;47.824;16.228;2022-09-09T16:31:05;1.30;;;0.80;;
18653;SDS011;9456;47.824;16.228;2022-09-09T16:33:32;0.53;;;0.53;;
18653;SDS011;9456;47.824;16.228;2022-09-09T16:36:04;0.60;;;0.60;;
18653;SDS011;9456;47.824;16.228;2022-09-09T16:38:32;0.77;;;0.77;;
18653;SDS011;9456;47.824;16.228;2022-09-09T16:41:03;0.93;;;0.53;;
18653;SDS011;9456;47.824;16.228;2022-09-09T16:43:31;0.90;;;0.90;;
18653;SDS011;9456;47.824;16.228;2022-09-09T16:45:59;1.53;;;0.97;;
18653;SDS011;9456;47.824;16.228;2022-09-09T16:48:26;1.33;;;1.00;;
18653;SDS011;9456;47.824;16.228;2022-09-09T16:51:00;1.03;;;0.90;;
18653;SDS011;9456;47.824;16.228;2022-09-09T16:53:28;0.97;;;0.97;;
18653;SDS011;9456;47.824;16.228;2022-09-09T16:55:55;1.13;;;1.00;;
18653;SDS011;9456;47.824;16.228;2022-09-09T16:58:26;1.00;;;1.00;;
18653;SDS011;9456;47.824;16.228;2022-09-09T17:01:05;1.03;;;1.03;;
18653;SDS011;9456;47.824;16.228;2022-09-09T17:04:27;1.27;;;1.17;;
18653;SDS011;9456;47.824;16.228;2022-09-09T20:49:34;6.00;;;4.47;;
18653;SDS011;9456;47.824;16.228;2022-09-09T20:52:16;4.00;;;3.70;;
18653;SDS011;9456;47.824;16.228;2022-09-09T20:55:26;3.60;;;3.30;;
18653;SDS011;9456;47.824;16.228;2022-09-09T20:58:38;3.17;;;2.87;;
